sensor_id;sensor_type;location;lat;lon;timestamp;pressure;altitude;pressure_sealevel;temperature;humidity
22753;BME280;11543;43.144;24.684;2022-09-09T00:00:23;98785.53;;;21.35;61.33
22753;BME280;11543;43.144;24.684;2022-09-09T00:05:39;98787.22;;;21.36;60.89
22753;BME280;11543;43.144;24.684;2022-09-09T00:08:18;98777.88;;;21.44;60.86
22753;BME280;11543;43.144;24.684;2022-09-09T00:10:45;98784.34;;;21.49;60.78
22753;BME280;11543;43.144;24.684;2022-09-09T00:21:41;98777.31;;;21.17;61.50
22753;BME280;11543;43.144;24.684;2022-09-09T00:30:27;98784.72;;;20.85;62.71
22753;BME280;11543;43.144;24.684;2022-09-09T00:33:11;98788.06;;;20.87;62.51
22753;BME280;11543;43.144;24.684;2022-09-09T00:35:44;98775.97;;;20.76;62.75
22753;BME280;11543;43.144;24.684;2022-09-09T00:38:14;98775.50;;;20.79;62.55
22753;BME280;11543;43.144;24.684;2022-09-09T00:40:58;98761.63;;;20.87;62.23
22753;BME280;11543;43.144;24.684;2022-09-09T00:43:37;98780.00;;;20.98;62.09
22753;BME280;11543;43.144;24.684;2022-09-09T00:49:21;98773.19;;;21.08;61.55
22753;BME280;11543;43.144;24.684;2022-09-09T00:54:44;98767.09;;;20.87;61.48
22753;BME280;11543;43.144;24.684;2022-09-09T00:57:25;98769.66;;;20.82;61.52
22753;BME280;11543;43.144;24.684;2022-09-09T01:02:53;98760.34;;;20.90;61.74
22753;BME280;11543;43.144;24.684;2022-09-09T01:05:33;98766.19;;;20.93;61.30
22753;BME280;11543;43.144;24.684;2022-09-09T01:08:03;98766.69;;;20.84;60.53
22753;BME280;11543;43.144;24.684;2022-09-09T01:10:49;98766.19;;;20.93;60.76
22753;BME280;11543;43.144;24.684;2022-09-09T01:13:28;98736.03;;;20.88;60.67
22753;BME280;11543;43.144;24.684;2022-09-09T01:15:57;98756.66;;;21.03;60.41
22753;BME280;11543;43.144;24.684;2022-09-09T01:18:28;98757.66;;;21.08;60.62
22753;BME280;11543;43.144;24.684;2022-09-09T01:26:39;98753.66;;;21.11;59.82
22753;BME280;11543;43.144;24.684;2022-09-09T01:29:13;98755.44;;;20.98;60.24
22753;BME280;11543;43.144;24.684;2022-09-09T01:31:42;98747.03;;;21.00;60.32
22753;BME280;11543;43.144;24.684;2022-09-09T01:34:13;98747.81;;;21.07;60.36
22753;BME280;11543;43.144;24.684;2022-09-09T01:36:58;98757.22;;;21.11;59.93
22753;BME280;11543;43.144;24.684;2022-09-09T01:39:25;98744.69;;;21.04;60.22
22753;BME280;11543;43.144;24.684;2022-09-09T01:41:52;98725.13;;;20.88;60.44
22753;BME280;11543;43.144;24.684;2022-09-09T01:44:18;98751.88;;;20.98;60.66
22753;BME280;11543;43.144;24.684;2022-09-09T01:46:45;98741.94;;;20.85;60.96
22753;BME280;11543;43.144;24.684;2022-09-09T01:49:10;98733.97;;;20.84;60.90
22753;BME280;11543;43.144;24.684;2022-09-09T01:51:37;98739.00;;;20.80;61.12
22753;BME280;11543;43.144;24.684;2022-09-09T01:54:04;98732.16;;;20.71;61.49
22753;BME280;11543;43.144;24.684;2022-09-09T01:59:33;98743.25;;;20.76;61.26
22753;BME280;11543;43.144;24.684;2022-09-09T02:02:14;98734.06;;;20.71;61.07
22753;BME280;11543;43.144;24.684;2022-09-09T02:04:47;98743.91;;;20.72;61.29
22753;BME280;11543;43.144;24.684;2022-09-09T02:10:04;98742.22;;;20.46;61.32
22753;BME280;11543;43.144;24.684;2022-09-09T02:12:31;98741.41;;;20.39;61.30
22753;BME280;11543;43.144;24.684;2022-09-09T02:15:05;98748.97;;;20.36;61.30
22753;BME280;11543;43.144;24.684;2022-09-09T02:17:38;98742.69;;;20.36;61.20
22753;BME280;11543;43.144;24.684;2022-09-09T02:20:12;98749.13;;;20.48;61.38
22753;BME280;11543;43.144;24.684;2022-09-09T02:22:42;98746.34;;;20.55;61.13
22753;BME280;11543;43.144;24.684;2022-09-09T02:25:13;98747.56;;;20.59;60.99
22753;BME280;11543;43.144;24.684;2022-09-09T02:27:43;98738.97;;;20.62;60.97
22753;BME280;11543;43.144;24.684;2022-09-09T02:30:10;98730.56;;;20.63;60.87
22753;BME280;11543;43.144;24.684;2022-09-09T02:32:37;98733.50;;;20.62;60.39
22753;BME280;11543;43.144;24.684;2022-09-09T02:35:14;98750.41;;;20.71;59.88
22753;BME280;11543;43.144;24.684;2022-09-09T02:37:42;98748.38;;;20.66;60.04
22753;BME280;11543;43.144;24.684;2022-09-09T02:40:11;98759.72;;;20.63;60.42
22753;BME280;11543;43.144;24.684;2022-09-09T02:42:48;98754.53;;;20.55;60.41
22753;BME280;11543;43.144;24.684;2022-09-09T02:45:27;98748.47;;;20.53;60.79
22753;BME280;11543;43.144;24.684;2022-09-09T02:48:14;98744.69;;;20.54;60.49
22753;BME280;11543;43.144;24.684;2022-09-09T02:50:54;98750.53;;;20.57;60.59
22753;BME280;11543;43.144;24.684;2022-09-09T02:53:31;98756.53;;;20.66;60.50
22753;BME280;11543;43.144;24.684;2022-09-09T02:56:06;98747.13;;;20.62;60.55
22753;BME280;11543;43.144;24.684;2022-09-09T02:58:34;98754.53;;;20.55;60.87
22753;BME280;11543;43.144;24.684;2022-09-09T03:01:00;98746.34;;;20.55;60.86
22753;BME280;11543;43.144;24.684;2022-09-09T03:03:28;98744.25;;;20.57;60.94
22753;BME280;11543;43.144;24.684;2022-09-09T03:05:54;98737.97;;;20.56;60.61
22753;BME280;11543;43.144;24.684;2022-09-09T03:08:19;98746.97;;;20.57;60.51
22753;BME280;11543;43.144;24.684;2022-09-09T03:10:45;98748.91;;;20.50;60.74
22753;BME280;11543;43.144;24.684;2022-09-09T03:13:10;98752.25;;;20.52;61.12
22753;BME280;11543;43.144;24.684;2022-09-09T03:15:38;98749.53;;;20.52;61.30
22753;BME280;11543;43.144;24.684;2022-09-09T03:18:03;98745.19;;;20.38;61.42
22753;BME280;11543;43.144;24.684;2022-09-09T03:20:29;98748.13;;;20.43;61.48
22753;BME280;11543;43.144;24.684;2022-09-09T03:22:56;98746.00;;;20.45;61.40
22753;BME280;11543;43.144;24.684;2022-09-09T03:25:22;98758.22;;;20.35;61.77
22753;BME280;11543;43.144;24.684;2022-09-09T03:27:49;98762.91;;;20.22;62.06
22753;BME280;11543;43.144;24.684;2022-09-09T03:30:15;98754.59;;;20.10;61.88
22753;BME280;11543;43.144;24.684;2022-09-09T03:32:41;98755.06;;;20.00;62.66
22753;BME280;11543;43.144;24.684;2022-09-09T03:35:07;98760.72;;;19.99;62.83
22753;BME280;11543;43.144;24.684;2022-09-09T03:37:33;98755.28;;;19.99;62.94
22753;BME280;11543;43.144;24.684;2022-09-09T03:39:58;98748.34;;;20.03;63.18
22753;BME280;11543;43.144;24.684;2022-09-09T03:42:25;98740.78;;;20.05;62.87
22753;BME280;11543;43.144;24.684;2022-09-09T03:44:50;98766.28;;;20.17;62.50
22753;BME280;11543;43.144;24.684;2022-09-09T03:47:29;98767.97;;;20.18;62.38
22753;BME280;11543;43.144;24.684;2022-09-09T03:49:55;98773.97;;;20.27;61.74
22753;BME280;11543;43.144;24.684;2022-09-09T03:52:20;98752.06;;;20.15;61.74
22753;BME280;11543;43.144;24.684;2022-09-09T03:54:50;98757.06;;;20.18;61.43
22753;BME280;11543;43.144;24.684;2022-09-09T03:57:15;98775.00;;;20.32;61.15
22753;BME280;11543;43.144;24.684;2022-09-09T03:59:42;98750.34;;;20.21;61.11
22753;BME280;11543;43.144;24.684;2022-09-09T04:02:07;98756.41;;;20.23;60.96
22753;BME280;11543;43.144;24.684;2022-09-09T04:04:34;98769.53;;;20.32;60.89
22753;BME280;11543;43.144;24.684;2022-09-09T04:07:00;98775.38;;;20.36;61.14
22753;BME280;11543;43.144;24.684;2022-09-09T04:09:26;98768.06;;;20.36;61.32
22753;BME280;11543;43.144;24.684;2022-09-09T04:11:51;98765.75;;;20.33;61.12
22753;BME280;11543;43.144;24.684;2022-09-09T04:14:19;98775.38;;;20.43;61.01
22753;BME280;11543;43.144;24.684;2022-09-09T04:16:45;98772.03;;;20.41;61.19
22753;BME280;11543;43.144;24.684;2022-09-09T04:19:11;98764.88;;;20.46;61.11
22753;BME280;11543;43.144;24.684;2022-09-09T04:21:41;98770.94;;;20.48;61.25
22753;BME280;11543;43.144;24.684;2022-09-09T04:24:07;98760.47;;;20.45;61.06
22753;BME280;11543;43.144;24.684;2022-09-09T04:26:34;98760.69;;;20.44;61.21
22753;BME280;11543;43.144;24.684;2022-09-09T04:29:02;98769.72;;;20.44;61.29
22753;BME280;11543;43.144;24.684;2022-09-09T04:31:27;98759.03;;;20.43;61.44
22753;BME280;11543;43.144;24.684;2022-09-09T04:33:53;98761.53;;;20.38;61.77
22753;BME280;11543;43.144;24.684;2022-09-09T04:36:18;98735.63;;;20.28;62.14
22753;BME280;11543;43.144;24.684;2022-09-09T04:38:45;98765.09;;;20.38;62.27
22753;BME280;11543;43.144;24.684;2022-09-09T04:41:11;98763.66;;;20.35;62.47
22753;BME280;11543;43.144;24.684;2022-09-09T04:43:38;98759.91;;;20.30;63.13
22753;BME280;11543;43.144;24.684;2022-09-09T04:46:04;98767.44;;;20.34;63.33
22753;BME280;11543;43.144;24.684;2022-09-09T04:48:30;98756.19;;;20.24;64.10
22753;BME280;11543;43.144;24.684;2022-09-09T04:51:00;98766.81;;;20.32;64.14
22753;BME280;11543;43.144;24.684;2022-09-09T04:53:26;98777.28;;;20.35;64.27
22753;BME280;11543;43.144;24.684;2022-09-09T04:56:12;98773.72;;;20.42;63.96
22753;BME280;11543;43.144;24.684;2022-09-09T04:58:39;98779.38;;;20.40;64.28
22753;BME280;11543;43.144;24.684;2022-09-09T05:01:15;98785.22;;;20.44;64.04
22753;BME280;11543;43.144;24.684;2022-09-09T05:03:42;98775.38;;;20.43;63.92
22753;BME280;11543;43.144;24.684;2022-09-09T05:06:12;98781.19;;;20.53;63.81
22753;BME280;11543;43.144;24.684;2022-09-09T05:08:39;98784.69;;;20.60;63.46
22753;BME280;11543;43.144;24.684;2022-09-09T05:11:19;98764.78;;;20.59;63.24
22753;BME280;11543;43.144;24.684;2022-09-09T05:13:46;98779.56;;;20.70;62.90
22753;BME280;11543;43.144;24.684;2022-09-09T05:16:13;98770.56;;;20.70;62.82
22753;BME280;11543;43.144;24.684;2022-09-09T05:18:39;98759.88;;;20.68;62.66
22753;BME280;11543;43.144;24.684;2022-09-09T05:21:06;98779.28;;;20.85;62.55
22753;BME280;11543;43.144;24.684;2022-09-09T05:23:32;98775.44;;;20.92;62.69
22753;BME280;11543;43.144;24.684;2022-09-09T05:25:59;98774.53;;;20.98;62.63
22753;BME280;11543;43.144;24.684;2022-09-09T05:28:26;98766.06;;;21.07;62.49
22753;BME280;11543;43.144;24.684;2022-09-09T05:30:59;98753.81;;;21.16;63.00
22753;BME280;11543;43.144;24.684;2022-09-09T05:33:26;98749.56;;;21.20;62.78
22753;BME280;11543;43.144;24.684;2022-09-09T05:35:59;98761.81;;;21.36;62.50
22753;BME280;11543;43.144;24.684;2022-09-09T05:38:25;98762.19;;;21.39;62.58
22753;BME280;11543;43.144;24.684;2022-09-09T05:40:52;98763.63;;;21.42;62.68
22753;BME280;11543;43.144;24.684;2022-09-09T05:43:18;98748.53;;;21.39;62.46
22753;BME280;11543;43.144;24.684;2022-09-09T05:45:46;98739.00;;;21.48;62.36
22753;BME280;11543;43.144;24.684;2022-09-09T05:48:15;98737.31;;;21.47;62.49
22753;BME280;11543;43.144;24.684;2022-09-09T05:50:42;98752.56;;;21.55;62.15
22753;BME280;11543;43.144;24.684;2022-09-09T05:53:08;98755.53;;;21.53;61.81
22753;BME280;11543;43.144;24.684;2022-09-09T05:55:35;98748.41;;;21.52;61.98
22753;BME280;11543;43.144;24.684;2022-09-09T05:58:00;98762.81;;;21.59;62.40
22753;BME280;11543;43.144;24.684;2022-09-09T06:00:26;98748.31;;;21.59;62.33
22753;BME280;11543;43.144;24.684;2022-09-09T06:02:52;98743.09;;;21.57;63.00
22753;BME280;11543;43.144;24.684;2022-09-09T06:05:19;98745.97;;;21.62;63.21
22753;BME280;11543;43.144;24.684;2022-09-09T06:07:45;98734.34;;;21.67;63.45
22753;BME280;11543;43.144;24.684;2022-09-09T06:10:11;98752.66;;;21.85;62.96
22753;BME280;11543;43.144;24.684;2022-09-09T06:12:39;98741.72;;;21.85;62.72
22753;BME280;11543;43.144;24.684;2022-09-09T06:15:05;98746.63;;;21.94;62.46
22753;BME280;11543;43.144;24.684;2022-09-09T06:17:30;98739.41;;;22.00;62.77
22753;BME280;11543;43.144;24.684;2022-09-09T06:19:56;98742.22;;;22.12;62.84
22753;BME280;11543;43.144;24.684;2022-09-09T06:22:22;98741.88;;;22.20;62.73
22753;BME280;11543;43.144;24.684;2022-09-09T06:24:49;98732.03;;;22.19;62.62
22753;BME280;11543;43.144;24.684;2022-09-09T06:27:16;98747.63;;;22.30;62.16
22753;BME280;11543;43.144;24.684;2022-09-09T06:29:41;98740.97;;;22.26;62.13
22753;BME280;11543;43.144;24.684;2022-09-09T06:32:07;98760.25;;;22.43;62.12
22753;BME280;11543;43.144;24.684;2022-09-09T06:34:34;98745.66;;;22.49;61.93
22753;BME280;11543;43.144;24.684;2022-09-09T06:37:00;98746.53;;;22.61;62.23
22753;BME280;11543;43.144;24.684;2022-09-09T06:39:26;98745.72;;;22.72;62.04
22753;BME280;11543;43.144;24.684;2022-09-09T06:41:51;98745.41;;;22.80;61.90
22753;BME280;11543;43.144;24.684;2022-09-09T06:44:18;98753.50;;;22.99;62.02
22753;BME280;11543;43.144;24.684;2022-09-09T06:46:44;98746.63;;;23.08;61.17
22753;BME280;11543;43.144;24.684;2022-09-09T06:49:13;98751.84;;;23.21;60.21
22753;BME280;11543;43.144;24.684;2022-09-09T06:51:39;98750.75;;;23.34;59.67
22753;BME280;11543;43.144;24.684;2022-09-09T06:54:08;98745.53;;;23.44;59.34
22753;BME280;11543;43.144;24.684;2022-09-09T06:56:39;98755.78;;;23.60;59.03
22753;BME280;11543;43.144;24.684;2022-09-09T06:59:07;98754.69;;;23.73;58.52
22753;BME280;11543;43.144;24.684;2022-09-09T07:01:36;98756.91;;;23.88;58.10
22753;BME280;11543;43.144;24.684;2022-09-09T07:04:08;98759.09;;;24.02;57.18
22753;BME280;11543;43.144;24.684;2022-09-09T07:06:46;98760.00;;;24.20;56.14
22753;BME280;11543;43.144;24.684;2022-09-09T07:09:15;98768.56;;;24.35;55.93
22753;BME280;11543;43.144;24.684;2022-09-09T07:11:46;98760.13;;;24.53;56.32
22753;BME280;11543;43.144;24.684;2022-09-09T07:14:13;98757.13;;;24.71;55.02
22753;BME280;11543;43.144;24.684;2022-09-09T07:16:43;98757.13;;;24.88;55.10
22753;BME280;11543;43.144;24.684;2022-09-09T07:19:13;98753.00;;;25.02;54.66
22753;BME280;11543;43.144;24.684;2022-09-09T07:21:39;98751.94;;;25.20;54.68
22753;BME280;11543;43.144;24.684;2022-09-09T07:24:05;98753.81;;;25.36;54.99
22753;BME280;11543;43.144;24.684;2022-09-09T07:26:35;98761.75;;;25.55;55.03
22753;BME280;11543;43.144;24.684;2022-09-09T07:29:01;98752.16;;;25.74;55.18
22753;BME280;11543;43.144;24.684;2022-09-09T07:31:30;98762.31;;;25.95;54.77
22753;BME280;11543;43.144;24.684;2022-09-09T07:33:56;98757.31;;;26.14;54.47
22753;BME280;11543;43.144;24.684;2022-09-09T07:36:33;98753.16;;;26.33;53.82
22753;BME280;11543;43.144;24.684;2022-09-09T07:39:04;98759.69;;;26.54;54.24
22753;BME280;11543;43.144;24.684;2022-09-09T07:41:39;98756.59;;;26.78;53.34
22753;BME280;11543;43.144;24.684;2022-09-09T07:44:07;98757.88;;;26.97;52.60
22753;BME280;11543;43.144;24.684;2022-09-09T07:46:33;98748.16;;;27.16;52.01
22753;BME280;11543;43.144;24.684;2022-09-09T07:48:59;98762.88;;;27.37;51.13
22753;BME280;11543;43.144;24.684;2022-09-09T07:51:31;98742.28;;;27.50;50.54
22753;BME280;11543;43.144;24.684;2022-09-09T07:53:59;98752.41;;;27.81;50.24
22753;BME280;11543;43.144;24.684;2022-09-09T07:56:26;98746.97;;;28.02;49.56
22753;BME280;11543;43.144;24.684;2022-09-09T07:58:53;98744.28;;;28.22;48.86
22753;BME280;11543;43.144;24.684;2022-09-09T08:03:55;98738.31;;;28.71;47.48
22753;BME280;11543;43.144;24.684;2022-09-09T08:06:25;98749.94;;;28.88;48.26
22753;BME280;11543;43.144;24.684;2022-09-09T08:08:52;98740.56;;;28.99;47.34
22753;BME280;11543;43.144;24.684;2022-09-09T08:11:18;98741.66;;;29.13;46.04
22753;BME280;11543;43.144;24.684;2022-09-09T08:13:44;98749.91;;;29.29;46.55
22753;BME280;11543;43.144;24.684;2022-09-09T08:16:16;98738.28;;;29.42;46.33
22753;BME280;11543;43.144;24.684;2022-09-09T08:18:42;98728.63;;;29.55;45.68
22753;BME280;11543;43.144;24.684;2022-09-09T08:21:13;98722.75;;;29.71;44.65
22753;BME280;11543;43.144;24.684;2022-09-09T08:23:40;98720.47;;;29.84;44.34
22753;BME280;11543;43.144;24.684;2022-09-09T08:26:20;98725.94;;;30.04;44.41
22753;BME280;11543;43.144;24.684;2022-09-09T08:28:54;98723.91;;;30.20;42.38
22753;BME280;11543;43.144;24.684;2022-09-09T08:33:49;98710.19;;;30.49;41.32
22753;BME280;11543;43.144;24.684;2022-09-09T08:36:18;98730.59;;;30.63;41.11
22753;BME280;11543;43.144;24.684;2022-09-09T08:38:48;98715.56;;;30.74;39.47
22753;BME280;11543;43.144;24.684;2022-09-09T08:44:01;98720.81;;;31.04;38.30
22753;BME280;11543;43.144;24.684;2022-09-09T08:50:02;98718.78;;;31.44;37.21
22753;BME280;11543;43.144;24.684;2022-09-09T08:53:02;98711.13;;;31.60;36.86
22753;BME280;11543;43.144;24.684;2022-09-09T08:55:51;98714.06;;;31.68;37.51
22753;BME280;11543;43.144;24.684;2022-09-09T08:58:22;98709.47;;;31.83;37.25
22753;BME280;11543;43.144;24.684;2022-09-09T09:12:21;98690.34;;;32.43;37.11
22753;BME280;11543;43.144;24.684;2022-09-09T09:14:48;98695.16;;;32.56;35.20
22753;BME280;11543;43.144;24.684;2022-09-09T09:17:20;98704.28;;;32.75;35.35
22753;BME280;11543;43.144;24.684;2022-09-09T09:19:48;98689.53;;;32.93;35.72
22753;BME280;11543;43.144;24.684;2022-09-09T09:22:23;98689.38;;;33.04;34.63
22753;BME280;11543;43.144;24.684;2022-09-09T09:25:02;98698.09;;;33.30;33.79
22753;BME280;11543;43.144;24.684;2022-09-09T09:27:36;98696.84;;;33.36;34.35
22753;BME280;11543;43.144;24.684;2022-09-09T09:32:48;98689.03;;;33.51;32.71
22753;BME280;11543;43.144;24.684;2022-09-09T09:35:16;98677.50;;;33.44;33.52
22753;BME280;11543;43.144;24.684;2022-09-09T09:37:42;98684.91;;;33.63;33.50
22753;BME280;11543;43.144;24.684;2022-09-09T09:40:19;98675.63;;;33.81;34.05
22753;BME280;11543;43.144;24.684;2022-09-09T09:42:54;98681.63;;;34.02;32.92
22753;BME280;11543;43.144;24.684;2022-09-09T09:45:43;98668.16;;;34.17;32.65
22753;BME280;11543;43.144;24.684;2022-09-09T09:48:13;98677.72;;;34.39;32.62
22753;BME280;11543;43.144;24.684;2022-09-09T09:53:20;98670.00;;;34.80;32.28
22753;BME280;11543;43.144;24.684;2022-09-09T09:55:53;98679.47;;;34.93;32.13
22753;BME280;11543;43.144;24.684;2022-09-09T09:58:19;98678.38;;;35.03;31.14
22753;BME280;11543;43.144;24.684;2022-09-09T10:00:50;98668.84;;;35.04;31.72
22753;BME280;11543;43.144;24.684;2022-09-09T10:05:50;98668.84;;;35.04;32.54
22753;BME280;11543;43.144;24.684;2022-09-09T10:08:16;98664.28;;;35.08;32.53
22753;BME280;11543;43.144;24.684;2022-09-09T10:11:00;98674.06;;;35.28;32.17
22753;BME280;11543;43.144;24.684;2022-09-09T10:13:44;98679.09;;;35.48;32.13
22753;BME280;11543;43.144;24.684;2022-09-09T10:19:04;98666.47;;;35.51;32.26
22753;BME280;11543;43.144;24.684;2022-09-09T10:51:36;98674.13;;;35.36;32.05
22753;BME280;11543;43.144;24.684;2022-09-09T10:53:48;98683.66;;;35.35;31.94
22753;BME280;11543;43.144;24.684;2022-09-09T10:56:22;98675.91;;;35.32;31.43
22753;BME280;11543;43.144;24.684;2022-09-09T11:01:30;98668.41;;;35.41;31.80
22753;BME280;11543;43.144;24.684;2022-09-09T11:04:05;98674.72;;;35.56;31.06
22753;BME280;11543;43.144;24.684;2022-09-09T11:06:39;98668.34;;;35.64;30.93
22753;BME280;11543;43.144;24.684;2022-09-09T11:09:16;98664.16;;;35.53;30.86
22753;BME280;11543;43.144;24.684;2022-09-09T11:11:51;98653.88;;;35.62;31.13
22753;BME280;11543;43.144;24.684;2022-09-09T11:14:42;98654.22;;;35.60;30.96
22753;BME280;11543;43.144;24.684;2022-09-09T11:17:12;98650.72;;;35.55;31.05
22753;BME280;11543;43.144;24.684;2022-09-09T11:19:42;98661.53;;;35.48;31.11
22753;BME280;11543;43.144;24.684;2022-09-09T11:36:49;98651.25;;;35.57;31.51
22753;BME280;11543;43.144;24.684;2022-09-09T11:38:53;98657.97;;;35.56;31.19
22753;BME280;11543;43.144;24.684;2022-09-09T11:41:22;98650.75;;;35.24;32.25
22753;BME280;11543;43.144;24.684;2022-09-09T11:43:50;98661.06;;;35.23;32.32
22753;BME280;11543;43.144;24.684;2022-09-09T11:46:36;98662.00;;;35.10;32.07
22753;BME280;11543;43.144;24.684;2022-09-09T11:49:05;98665.28;;;35.12;31.75
22753;BME280;11543;43.144;24.684;2022-09-09T11:51:33;98654.91;;;35.04;31.49
22753;BME280;11543;43.144;24.684;2022-09-09T11:54:31;98659.00;;;34.98;30.97
22753;BME280;11543;43.144;24.684;2022-09-09T11:56:58;98663.63;;;34.80;32.10
22753;BME280;11543;43.144;24.684;2022-09-09T11:59:29;98656.13;;;34.67;32.15
22753;BME280;11543;43.144;24.684;2022-09-09T12:06:53;98650.88;;;34.07;33.68
22753;BME280;11543;43.144;24.684;2022-09-09T12:19:42;98641.81;;;34.01;34.40
22753;BME280;11543;43.144;24.684;2022-09-09T12:25:15;98617.50;;;33.93;33.97
22753;BME280;11543;43.144;24.684;2022-09-09T12:27:44;98631.53;;;33.88;34.45
22753;BME280;11543;43.144;24.684;2022-09-09T12:30:14;98618.41;;;33.75;34.60
22753;BME280;11543;43.144;24.684;2022-09-09T12:32:41;98623.47;;;33.73;35.45
22753;BME280;11543;43.144;24.684;2022-09-09T12:35:11;98623.03;;;33.79;35.30
22753;BME280;11543;43.144;24.684;2022-09-09T12:37:53;98618.94;;;33.77;34.73
22753;BME280;11543;43.144;24.684;2022-09-09T12:40:33;98627.78;;;33.79;35.10
22753;BME280;11543;43.144;24.684;2022-09-09T12:43:01;98617.91;;;33.73;35.21
22753;BME280;11543;43.144;24.684;2022-09-09T12:45:30;98608.03;;;33.67;35.03
22753;BME280;11543;43.144;24.684;2022-09-09T12:50:31;98604.34;;;33.58;35.75
22753;BME280;11543;43.144;24.684;2022-09-09T12:53:01;98614.00;;;33.60;34.94
22753;BME280;11543;43.144;24.684;2022-09-09T12:55:32;98622.69;;;33.31;35.53
22753;BME280;11543;43.144;24.684;2022-09-09T12:58:03;98606.81;;;33.18;36.20
22753;BME280;11543;43.144;24.684;2022-09-09T13:00:31;98617.94;;;33.18;36.44
22753;BME280;11543;43.144;24.684;2022-09-09T13:02:58;98618.34;;;32.98;36.17
22753;BME280;11543;43.144;24.684;2022-09-09T13:05:36;98630.03;;;32.94;36.99
22753;BME280;11543;43.144;24.684;2022-09-09T13:08:11;98625.28;;;32.81;36.76
22753;BME280;11543;43.144;24.684;2022-09-09T13:10:46;98624.69;;;32.66;37.02
22753;BME280;11543;43.144;24.684;2022-09-09T13:13:17;98631.44;;;32.46;37.52
22753;BME280;11543;43.144;24.684;2022-09-09T13:15:53;98610.22;;;32.17;37.61
22753;BME280;11543;43.144;24.684;2022-09-09T13:18:22;98621.91;;;32.14;38.04
22753;BME280;11543;43.144;24.684;2022-09-09T13:20:49;98624.22;;;32.07;38.56
22753;BME280;11543;43.144;24.684;2022-09-09T13:23:17;98620.41;;;32.03;38.85
22753;BME280;11543;43.144;24.684;2022-09-09T13:26:00;98622.88;;;32.05;39.28
22753;BME280;11543;43.144;24.684;2022-09-09T13:28:28;98632.09;;;32.00;39.34
22753;BME280;11543;43.144;24.684;2022-09-09T13:31:03;98618.06;;;31.91;39.37
22753;BME280;11543;43.144;24.684;2022-09-09T13:33:38;98620.09;;;31.86;39.30
22753;BME280;11543;43.144;24.684;2022-09-09T13:36:17;98623.78;;;31.81;39.07
22753;BME280;11543;43.144;24.684;2022-09-09T13:38:55;98624.38;;;31.78;39.32
22753;BME280;11543;43.144;24.684;2022-09-09T13:41:36;98628.63;;;31.71;39.47
22753;BME280;11543;43.144;24.684;2022-09-09T13:44:04;98612.94;;;31.61;39.74
22753;BME280;11543;43.144;24.684;2022-09-09T13:46:37;98613.91;;;31.51;40.23
22753;BME280;11543;43.144;24.684;2022-09-09T13:51:50;98615.44;;;31.39;41.63
22753;BME280;11543;43.144;24.684;2022-09-09T13:54:20;98614.75;;;31.28;42.53
22753;BME280;11543;43.144;24.684;2022-09-09T13:56:46;98607.56;;;31.27;42.62
22753;BME280;11543;43.144;24.684;2022-09-09T13:59:14;98613.09;;;31.27;43.12
22753;BME280;11543;43.144;24.684;2022-09-09T14:01:40;98610.38;;;31.22;43.57
22753;BME280;11543;43.144;24.684;2022-09-09T14:04:07;98610.31;;;31.27;43.56
22753;BME280;11543;43.144;24.684;2022-09-09T14:06:34;98608.72;;;31.21;44.10
22753;BME280;11543;43.144;24.684;2022-09-09T14:09:02;98604.91;;;31.12;44.12
22753;BME280;11543;43.144;24.684;2022-09-09T14:11:28;98600.53;;;31.05;44.75
22753;BME280;11543;43.144;24.684;2022-09-09T14:13:53;98589.22;;;31.02;44.64
22753;BME280;11543;43.144;24.684;2022-09-09T14:16:19;98604.72;;;31.03;45.12
22753;BME280;11543;43.144;24.684;2022-09-09T14:18:47;98596.75;;;30.96;45.25
22753;BME280;11543;43.144;24.684;2022-09-09T14:21:13;98606.19;;;30.95;44.84
22753;BME280;11543;43.144;24.684;2022-09-09T14:23:39;98590.69;;;30.94;44.94
22753;BME280;11543;43.144;24.684;2022-09-09T14:26:05;98578.31;;;30.87;44.84
22753;BME280;11543;43.144;24.684;2022-09-09T14:28:31;98591.91;;;30.83;45.41
22753;BME280;11543;43.144;24.684;2022-09-09T14:31:03;98597.94;;;30.90;44.98
22753;BME280;11543;43.144;24.684;2022-09-09T14:33:29;98600.78;;;30.85;44.69
22753;BME280;11543;43.144;24.684;2022-09-09T14:35:57;98597.94;;;30.90;44.38
22753;BME280;11543;43.144;24.684;2022-09-09T14:38:22;98596.59;;;30.88;43.84
22753;BME280;11543;43.144;24.684;2022-09-09T14:40:48;98596.28;;;30.89;44.02
22753;BME280;11543;43.144;24.684;2022-09-09T14:43:13;98587.50;;;30.82;44.12
22753;BME280;11543;43.144;24.684;2022-09-09T14:45:39;98598.53;;;30.87;43.76
22753;BME280;11543;43.144;24.684;2022-09-09T14:48:04;98588.63;;;30.81;44.02
22753;BME280;11543;43.144;24.684;2022-09-09T14:50:30;98617.97;;;30.82;44.71
22753;BME280;11543;43.144;24.684;2022-09-09T14:52:55;98591.56;;;30.66;45.00
22753;BME280;11543;43.144;24.684;2022-09-09T14:55:21;98613.59;;;30.76;44.87
22753;BME280;11543;43.144;24.684;2022-09-09T14:57:46;98612.53;;;30.72;44.89
22753;BME280;11543;43.144;24.684;2022-09-09T15:00:12;98615.00;;;30.73;44.87
22753;BME280;11543;43.144;24.684;2022-09-09T15:02:38;98597.69;;;30.63;45.40
22753;BME280;11543;43.144;24.684;2022-09-09T15:05:05;98608.75;;;30.63;45.69
22753;BME280;11543;43.144;24.684;2022-09-09T15:07:30;98614.88;;;30.60;46.11
22753;BME280;11543;43.144;24.684;2022-09-09T15:10:00;98618.75;;;30.59;45.94
22753;BME280;11543;43.144;24.684;2022-09-09T15:12:26;98623.81;;;30.47;46.61
22753;BME280;11543;43.144;24.684;2022-09-09T15:14:53;98615.03;;;30.34;46.78
22753;BME280;11543;43.144;24.684;2022-09-09T15:17:20;98605.94;;;30.29;46.96
22753;BME280;11543;43.144;24.684;2022-09-09T15:19:45;98612.00;;;30.36;46.60
22753;BME280;11543;43.144;24.684;2022-09-09T15:22:11;98610.31;;;30.40;47.04
22753;BME280;11543;43.144;24.684;2022-09-09T15:24:36;98596.19;;;30.41;46.54